createdAt,value
2023-09-16T00:00:30.108Z,74.78
2023-09-16T00:03:01.743Z,74.96
2023-09-16T00:05:33.634Z,74.81
2023-09-16T00:08:05.140Z,74.67
2023-09-16T00:10:36.689Z,74.94
2023-09-16T00:13:10.364Z,75.05
2023-09-16T00:15:41.938Z,75.26
2023-09-16T00:18:13.793Z,75.15
2023-09-16T00:20:45.662Z,74.93
2023-09-16T00:23:17.517Z,74.86
2023-09-16T00:25:49.044Z,75.11
2023-09-16T00:28:20.754Z,75.13
2023-09-16T00:30:52.400Z,75.04
2023-09-16T00:33:23.967Z,74.97
2023-09-16T00:35:55.475Z,74.82
2023-09-16T00:38:27.028Z,75.09
2023-09-16T00:40:58.543Z,75.27
2023-09-16T00:43:30.073Z,75.07
2023-09-16T00:46:01.927Z,74.89
2023-09-16T00:48:33.643Z,75.17
2023-09-16T00:51:05.366Z,74.77
2023-09-16T00:53:36.870Z,74.72
2023-09-16T00:56:08.448Z,74.99
2023-09-16T00:58:39.956Z,75.13
2023-09-16T01:01:11.943Z,75.31
2023-09-16T01:03:43.627Z,75.52
2023-09-16T01:06:15.159Z,75.39
2023-09-16T01:08:46.865Z,75.16
2023-09-16T01:11:18.833Z,75.52
2023-09-16T01:13:50.339Z,75.46
2023-09-16T01:16:22.254Z,75.65
2023-09-16T01:18:54.118Z,75.51
2023-09-16T01:21:25.659Z,75.55
2023-09-16T01:23:57.494Z,75.74
2023-09-16T01:26:28.986Z,75.86
2023-09-16T01:29:00.936Z,75.81
2023-09-16T01:31:32.433Z,76.08
2023-09-16T01:34:04.311Z,75.88
2023-09-16T01:36:35.909Z,76.00
2023-09-16T01:39:07.920Z,75.95
2023-09-16T01:41:39.441Z,76.12
2023-09-16T01:44:11.340Z,76.27
2023-09-16T01:46:42.938Z,76.07
2023-09-16T01:49:14.536Z,76.20
2023-09-16T01:51:46.358Z,76.33
2023-09-16T01:54:17.906Z,76.20
2023-09-16T01:56:49.733Z,76.07
2023-09-16T01:59:21.230Z,76.48
2023-09-16T02:01:53.141Z,76.24
2023-09-16T02:04:24.781Z,76.40
2023-09-16T02:06:56.723Z,76.47
2023-09-16T02:09:28.279Z,76.37
2023-09-16T02:12:00.154Z,76.48
2023-09-16T02:14:31.659Z,76.56
2023-09-16T02:17:03.394Z,76.92
2023-09-16T02:19:35.250Z,76.60
2023-09-16T02:22:07.002Z,77.05
2023-09-16T02:24:39.042Z,77.03
2023-09-16T02:27:10.541Z,76.88
2023-09-16T02:29:42.409Z,76.96
2023-09-16T02:32:13.916Z,77.00
2023-09-16T02:34:45.765Z,77.32
2023-09-16T02:37:17.272Z,77.16
2023-09-16T02:39:48.968Z,77.06
2023-09-16T02:42:20.465Z,77.20
2023-09-16T02:44:52.168Z,76.97
2023-09-16T02:47:23.837Z,77.42
2023-09-16T02:49:55.685Z,77.22
2023-09-16T02:52:27.198Z,77.22
2023-09-16T02:54:58.801Z,77.24
2023-09-16T02:57:30.442Z,77.25
2023-09-16T03:00:02.051Z,77.13
2023-09-16T03:02:33.781Z,76.65
2023-09-16T03:05:05.341Z,76.97
2023-09-16T03:07:37.060Z,76.53
2023-09-16T03:10:08.592Z,76.48
2023-09-16T03:12:40.374Z,76.09
2023-09-16T03:15:11.937Z,75.76
2023-09-16T03:17:54.058Z,75.89
2023-09-16T03:20:29.728Z,75.81
2023-09-16T03:23:01.238Z,75.49
2023-09-16T03:25:33.147Z,75.83
2023-09-16T03:28:04.692Z,75.49
2023-09-16T03:30:36.650Z,75.38
2023-09-16T03:33:08.178Z,75.43
2023-09-16T03:35:39.711Z,75.82
2023-09-16T03:38:11.231Z,75.74
2023-09-16T03:40:43.065Z,75.81
2023-09-16T03:43:14.565Z,75.82
2023-09-16T03:45:46.411Z,75.91
2023-09-16T03:48:18.252Z,76.18
2023-09-16T03:50:50.292Z,76.00
2023-09-16T03:53:31.901Z,76.44
2023-09-16T03:56:11.890Z,76.39
2023-09-16T03:58:43.480Z,76.61
2023-09-16T04:01:15.252Z,76.75
2023-09-16T04:03:46.838Z,77.05
2023-09-16T04:06:18.829Z,77.45
2023-09-16T04:08:50.364Z,77.51
2023-09-16T04:11:22.204Z,77.35
2023-09-16T04:13:53.705Z,77.21
2023-09-16T04:16:25.273Z,77.50
2023-09-16T04:18:56.826Z,77.53
2023-09-16T04:21:28.633Z,77.56
2023-09-16T04:24:00.157Z,77.37
2023-09-16T04:26:32.192Z,77.53
2023-09-16T04:29:03.692Z,78.02
2023-09-16T04:31:35.493Z,77.67
2023-09-16T04:34:07.104Z,77.76
2023-09-16T04:36:38.714Z,77.86
2023-09-16T04:39:10.218Z,77.53
2023-09-16T04:41:42.004Z,77.56
2023-09-16T04:44:13.504Z,78.02
2023-09-16T04:46:45.408Z,78.06
2023-09-16T04:49:16.951Z,77.92
2023-09-16T04:51:48.928Z,77.99
2023-09-16T04:54:20.459Z,77.72
2023-09-16T04:56:52.413Z,77.48
2023-09-16T04:59:23.934Z,77.22
2023-09-16T05:01:55.830Z,77.59
2023-09-16T05:04:27.405Z,77.43
2023-09-16T05:06:59.321Z,77.29
2023-09-16T05:09:30.830Z,77.17
2023-09-16T05:12:02.774Z,77.23
2023-09-16T05:14:34.272Z,76.76
2023-09-16T05:17:06.057Z,76.74
2023-09-16T05:19:37.576Z,76.79
2023-09-16T05:22:09.416Z,76.72
2023-09-16T05:24:41.028Z,76.28
2023-09-16T05:27:13.039Z,76.05
2023-09-16T05:29:44.555Z,76.06
2023-09-16T05:32:16.585Z,75.99
2023-09-16T05:34:48.143Z,75.73
2023-09-16T05:37:19.945Z,75.50
2023-09-16T05:39:51.503Z,75.73
2023-09-16T05:42:23.353Z,75.44
2023-09-16T05:44:54.852Z,74.98
2023-09-16T05:47:26.823Z,74.65
2023-09-16T05:49:58.539Z,74.56
2023-09-16T05:52:30.459Z,73.94
2023-09-16T05:55:01.968Z,74.31
2023-09-16T05:57:34.023Z,73.94
2023-09-16T06:00:05.520Z,73.59
2023-09-16T06:02:37.406Z,73.19
2023-09-16T06:05:08.903Z,73.24
2023-09-16T06:07:40.709Z,73.19
2023-09-16T06:10:12.213Z,72.91
2023-09-16T06:12:44.229Z,72.49
2023-09-16T06:15:15.740Z,71.81
2023-09-16T06:17:47.460Z,71.37
2023-09-16T06:20:18.960Z,71.26
2023-09-16T06:22:50.878Z,70.86
2023-09-16T06:25:22.376Z,70.64
2023-09-16T06:27:54.289Z,70.60
2023-09-16T06:30:25.794Z,70.31
2023-09-16T06:32:57.609Z,69.53
2023-09-16T06:35:29.122Z,69.04
2023-09-16T06:38:00.992Z,68.47
2023-09-16T06:40:32.492Z,68.31
2023-09-16T06:43:04.352Z,68.05
2023-09-16T06:45:35.908Z,67.94
2023-09-16T06:48:07.534Z,67.37
2023-09-16T06:50:39.471Z,66.54
2023-09-16T06:53:10.988Z,66.19
2023-09-16T06:55:42.501Z,66.14
2023-09-16T06:58:14.060Z,65.26
2023-09-16T07:00:45.930Z,64.49
2023-09-16T07:03:17.477Z,64.39
2023-09-16T07:05:49.467Z,63.71
2023-09-16T07:08:20.978Z,63.44
2023-09-16T07:10:52.544Z,62.69
2023-09-16T07:13:24.038Z,62.59
2023-09-16T07:15:56.082Z,62.93
2023-09-16T07:18:27.683Z,62.74
2023-09-16T07:20:59.566Z,61.76
2023-09-16T07:23:31.113Z,61.35
2023-09-16T07:26:02.605Z,61.09
2023-09-16T07:28:34.284Z,60.50
2023-09-16T07:31:05.879Z,60.40
2023-09-16T07:33:39.230Z,59.90
2023-09-16T07:36:12.254Z,59.74
2023-09-16T07:38:44.166Z,58.80
2023-09-16T07:41:15.672Z,58.58
2023-09-16T07:43:47.205Z,58.17
2023-09-16T07:46:18.998Z,57.66
2023-09-16T07:48:51.208Z,57.28
2023-09-16T07:51:23.270Z,56.24
2023-09-16T07:53:54.778Z,56.39
2023-09-16T07:56:26.297Z,56.04
2023-09-16T07:58:57.796Z,55.76
2023-09-16T08:01:29.380Z,55.01
2023-09-16T08:04:00.957Z,55.52
2023-09-16T08:06:33.040Z,53.62
2023-09-16T08:09:04.628Z,53.92
2023-09-16T08:11:36.168Z,53.10
2023-09-16T08:14:07.670Z,51.92
2023-09-16T08:16:39.643Z,51.78
2023-09-16T08:19:12.068Z,52.32
2023-09-16T08:21:43.980Z,51.45
2023-09-16T08:24:15.719Z,50.39
2023-09-16T08:26:47.212Z,50.16
2023-09-16T08:29:19.035Z,49.43
2023-09-16T08:31:50.555Z,49.63
2023-09-16T08:34:22.426Z,49.37
2023-09-16T08:36:54.009Z,49.19
2023-09-16T08:39:25.787Z,49.51
2023-09-16T08:41:57.327Z,49.23
2023-09-16T08:44:28.853Z,51.13
2023-09-16T08:47:00.788Z,50.71
2023-09-16T08:49:32.788Z,49.18
2023-09-16T08:52:04.500Z,48.76
2023-09-16T08:54:36.154Z,47.98
2023-09-16T08:57:07.851Z,47.75
2023-09-16T08:59:39.368Z,47.70
2023-09-16T09:02:11.237Z,46.94
2023-09-16T09:04:42.957Z,46.27
2023-09-16T09:07:14.652Z,45.57
2023-09-16T09:09:46.192Z,44.98
2023-09-16T09:12:17.724Z,44.33
2023-09-16T09:14:49.393Z,44.33
2023-09-16T09:17:20.977Z,44.36
2023-09-16T09:19:52.804Z,42.89
2023-09-16T09:22:24.308Z,42.27
2023-09-16T09:24:56.187Z,43.92
2023-09-16T09:27:27.735Z,44.72
2023-09-16T09:29:59.279Z,45.78
2023-09-16T09:32:30.819Z,47.25
2023-09-16T09:35:02.676Z,46.82
2023-09-16T09:37:34.198Z,45.44
2023-09-16T09:40:06.053Z,44.67
2023-09-16T09:42:37.754Z,46.05
2023-09-16T09:45:09.375Z,47.54
2023-09-16T09:47:41.313Z,46.93
2023-09-16T09:50:13.139Z,45.47
2023-09-16T09:52:44.902Z,43.51
2023-09-16T09:55:16.419Z,42.79
2023-09-16T09:57:48.267Z,42.12
2023-09-16T10:00:19.797Z,43.11
2023-09-16T10:02:51.800Z,42.71
2023-09-16T10:05:23.366Z,41.83
2023-09-16T10:07:55.188Z,42.90
2023-09-16T10:10:26.773Z,41.57
2023-09-16T10:12:58.584Z,41.01
2023-09-16T10:15:30.158Z,41.17
2023-09-16T10:18:01.722Z,41.47
2023-09-16T10:20:33.522Z,41.39
2023-09-16T10:23:05.032Z,41.16
2023-09-16T10:25:40.472Z,40.78
2023-09-16T10:28:12.977Z,40.88
2023-09-16T10:30:44.868Z,40.99
2023-09-16T10:33:16.464Z,41.08
2023-09-16T10:35:48.240Z,40.82
2023-09-16T10:38:19.732Z,40.70
2023-09-16T10:40:51.531Z,40.98
2023-09-16T10:43:23.275Z,41.37
2023-09-16T10:45:57.338Z,40.72
2023-09-16T10:48:30.182Z,40.79
2023-09-16T10:51:01.673Z,41.47
2023-09-16T10:53:34.671Z,41.46
2023-09-16T10:56:08.086Z,41.41
2023-09-16T10:58:40.034Z,41.93
2023-09-16T11:01:11.622Z,42.14
2023-09-16T11:03:43.543Z,42.19
2023-09-16T11:06:15.094Z,42.19
2023-09-16T11:08:47.270Z,42.31
2023-09-16T11:11:19.222Z,41.62
2023-09-16T11:13:51.253Z,42.22
2023-09-16T11:16:23.191Z,41.91
2023-09-16T11:18:54.801Z,42.02
2023-09-16T11:21:26.374Z,42.71
2023-09-16T11:23:58.198Z,42.28
2023-09-16T11:26:29.889Z,42.43
2023-09-16T11:29:01.359Z,42.15
2023-09-16T11:31:33.440Z,42.69
2023-09-16T11:34:05.057Z,42.98
2023-09-16T11:36:36.847Z,42.71
2023-09-16T11:39:08.571Z,42.91
2023-09-16T11:41:40.374Z,42.17
2023-09-16T11:44:12.203Z,42.13
2023-09-16T11:46:43.710Z,42.17
2023-09-16T11:49:15.630Z,41.91
2023-09-16T11:51:47.493Z,43.94
2023-09-16T11:54:19.015Z,42.88
2023-09-16T11:56:50.859Z,42.79
2023-09-16T11:59:22.343Z,42.80
2023-09-16T12:01:54.043Z,42.82
2023-09-16T12:04:25.707Z,43.36
2023-09-16T12:06:57.636Z,43.89
2023-09-16T12:09:29.178Z,43.20
2023-09-16T12:12:00.705Z,43.57
2023-09-16T12:14:32.561Z,43.36
2023-09-16T12:17:04.074Z,42.76
2023-09-16T12:19:36.036Z,43.18
2023-09-16T12:22:07.572Z,44.56
2023-09-16T12:24:39.127Z,43.99
2023-09-16T12:27:10.636Z,43.93
2023-09-16T12:29:42.464Z,43.86
2023-09-16T12:32:14.001Z,44.43
2023-09-16T12:34:45.591Z,44.01
2023-09-16T12:37:17.226Z,43.84
2023-09-16T12:39:49.168Z,43.73
2023-09-16T12:42:21.065Z,44.14
2023-09-16T12:44:52.849Z,42.53
2023-09-16T12:47:24.336Z,42.10
2023-09-16T12:49:55.813Z,42.07
2023-09-16T12:52:27.369Z,41.39
2023-09-16T12:54:58.968Z,40.64
2023-09-16T12:57:30.571Z,40.63
2023-09-16T13:00:02.080Z,41.02
2023-09-16T13:02:34.130Z,40.58
2023-09-16T13:05:05.625Z,40.46
2023-09-16T13:07:37.429Z,40.45
2023-09-16T13:10:09.019Z,40.06
2023-09-16T13:12:40.941Z,40.32
2023-09-16T13:15:12.483Z,40.72
2023-09-16T13:17:44.182Z,40.42
2023-09-16T13:20:15.988Z,39.97
2023-09-16T13:22:47.486Z,39.68
2023-09-16T13:25:19.357Z,39.91
2023-09-16T13:27:50.891Z,40.09
2023-09-16T13:30:22.670Z,39.66
2023-09-16T13:32:54.202Z,39.27
2023-09-16T13:35:25.808Z,39.55
2023-09-16T13:37:57.397Z,39.26
2023-09-16T13:40:28.905Z,39.64
2023-09-16T13:43:00.490Z,39.48
2023-09-16T13:45:32.430Z,39.10
2023-09-16T13:48:03.946Z,38.60
2023-09-16T13:50:35.929Z,39.09
2023-09-16T13:53:07.685Z,39.55
2023-09-16T13:55:39.184Z,39.99
2023-09-16T13:58:11.244Z,39.75
2023-09-16T14:00:42.750Z,40.03
2023-09-16T14:03:14.363Z,40.85
2023-09-16T14:05:45.924Z,40.77
2023-09-16T14:08:17.760Z,40.32
2023-09-16T14:10:49.393Z,38.89
2023-09-16T14:13:21.609Z,38.01
2023-09-16T14:15:53.549Z,37.74
2023-09-16T14:18:25.422Z,38.52
2023-09-16T14:20:57.026Z,38.08
2023-09-16T14:23:28.547Z,38.40
2023-09-16T14:26:00.019Z,38.20
2023-09-16T14:28:31.810Z,38.09
2023-09-16T14:31:03.385Z,37.82
2023-09-16T14:33:35.436Z,38.14
2023-09-16T14:36:06.923Z,37.40
2023-09-16T14:38:38.434Z,37.21
2023-09-16T14:41:09.936Z,36.52
2023-09-16T14:43:41.993Z,36.28
2023-09-16T14:46:13.903Z,36.73
2023-09-16T14:48:45.778Z,37.35
2023-09-16T14:51:17.690Z,37.54
2023-09-16T14:53:49.194Z,37.61
2023-09-16T14:56:21.027Z,37.31
2023-09-16T14:58:52.633Z,37.92
2023-09-16T15:01:24.256Z,38.13
2023-09-16T15:03:55.853Z,37.75
2023-09-16T15:06:27.445Z,38.86
2023-09-16T15:08:59.000Z,38.67
2023-09-16T15:11:30.518Z,38.56
2023-09-16T15:14:02.030Z,38.94
2023-09-16T15:16:33.801Z,38.57
2023-09-16T15:19:05.469Z,38.48
2023-09-16T15:21:37.232Z,38.73
2023-09-16T15:24:08.707Z,39.76
2023-09-16T15:26:40.470Z,39.84
2023-09-16T15:29:12.336Z,41.00
2023-09-16T15:31:43.975Z,41.47
2023-09-16T15:34:15.925Z,42.24
2023-09-16T15:36:47.484Z,42.39
2023-09-16T15:39:19.324Z,42.35
2023-09-16T15:41:50.846Z,42.96
2023-09-16T15:44:22.908Z,43.53
2023-09-16T15:46:54.411Z,43.66
2023-09-16T15:49:25.945Z,44.09
2023-09-16T15:51:57.586Z,44.47
2023-09-16T15:54:29.171Z,44.54
2023-09-16T15:57:00.939Z,44.88
2023-09-16T15:59:32.807Z,45.50
2023-09-16T16:02:04.767Z,45.47
2023-09-16T16:04:36.408Z,46.06
2023-09-16T16:07:08.213Z,46.03
2023-09-16T16:09:39.703Z,46.22
2023-09-16T16:12:11.528Z,46.37
2023-09-16T16:14:43.027Z,46.29
2023-09-16T16:17:23.852Z,46.82
2023-09-16T16:19:56.242Z,46.50
2023-09-16T16:22:27.744Z,47.09
2023-09-16T16:24:59.292Z,47.59
2023-09-16T16:27:30.925Z,47.82
2023-09-16T16:30:02.792Z,48.23
2023-09-16T16:32:34.486Z,48.45
2023-09-16T16:35:06.417Z,48.84
2023-09-16T16:37:37.933Z,49.18
2023-09-16T16:40:09.927Z,49.59
2023-09-16T16:42:41.468Z,50.38
2023-09-16T16:45:13.488Z,50.51
2023-09-16T16:47:45.012Z,50.85
2023-09-16T16:50:17.056Z,51.16
2023-09-16T16:52:48.548Z,51.55
2023-09-16T16:55:20.164Z,51.71
2023-09-16T16:57:51.681Z,52.18
2023-09-16T17:00:23.405Z,52.72
2023-09-16T17:02:55.425Z,52.78
2023-09-16T17:05:27.556Z,52.95
2023-09-16T17:07:59.428Z,53.26
2023-09-16T17:10:30.998Z,53.58
2023-09-16T17:13:03.040Z,53.90
2023-09-16T17:15:34.592Z,54.14
2023-09-16T17:18:06.126Z,54.52
2023-09-16T17:20:37.607Z,54.72
2023-09-16T17:23:09.104Z,55.24
2023-09-16T17:25:42.653Z,55.36
2023-09-16T17:28:16.520Z,55.54
2023-09-16T17:30:48.554Z,55.89
2023-09-16T17:33:20.313Z,55.96
2023-09-16T17:35:53.653Z,56.28
2023-09-16T17:38:25.347Z,56.51
2023-09-16T17:40:57.174Z,56.95
2023-09-16T17:43:28.683Z,57.15
2023-09-16T17:46:00.335Z,57.31
2023-09-16T17:48:31.887Z,57.40
2023-09-16T17:51:03.747Z,57.42
2023-09-16T17:53:35.548Z,57.76
2023-09-16T17:56:07.066Z,58.03
2023-09-16T17:58:38.568Z,58.14
2023-09-16T18:01:10.326Z,58.41
2023-09-16T18:03:41.841Z,58.82
2023-09-16T18:06:13.393Z,59.11
2023-09-16T18:08:44.893Z,59.30
2023-09-16T18:11:16.755Z,59.63
2023-09-16T18:13:48.596Z,59.92
2023-09-16T18:16:20.179Z,60.38
2023-09-16T18:18:52.252Z,60.51
2023-09-16T18:21:24.032Z,60.74
2023-09-16T18:23:55.541Z,61.04
2023-09-16T18:26:27.029Z,61.20
2023-09-16T18:28:58.913Z,61.36
2023-09-16T18:31:30.550Z,61.44
2023-09-16T18:34:02.529Z,61.87
2023-09-16T18:36:34.065Z,62.06
2023-09-16T18:39:05.748Z,62.14
2023-09-16T18:41:37.412Z,62.40
2023-09-16T18:44:09.216Z,62.39
2023-09-16T18:46:41.166Z,62.53
2023-09-16T18:49:12.714Z,62.96
2023-09-16T18:51:44.598Z,62.81
2023-09-16T18:54:16.072Z,63.20
2023-09-16T18:56:47.953Z,63.57
2023-09-16T18:59:19.534Z,63.89
2023-09-16T19:01:51.114Z,63.75
2023-09-16T19:04:22.750Z,64.06
2023-09-16T19:06:54.392Z,64.22
2023-09-16T19:09:25.872Z,64.59
2023-09-16T19:11:57.416Z,64.57
2023-09-16T19:14:28.891Z,64.74
2023-09-16T19:17:00.516Z,65.31
2023-09-16T19:19:32.820Z,65.31
2023-09-16T19:22:05.095Z,65.48
2023-09-16T19:24:37.164Z,65.78
2023-09-16T19:27:08.744Z,66.29
2023-09-16T19:29:40.239Z,66.21
2023-09-16T19:32:11.757Z,66.38
2023-09-16T19:34:43.932Z,66.93
2023-09-16T19:37:15.521Z,66.74
2023-09-16T19:39:47.173Z,67.17
2023-09-16T19:42:18.700Z,66.80
2023-09-16T19:44:50.737Z,67.00
2023-09-16T19:47:23.424Z,67.33
2023-09-16T19:49:55.516Z,67.88
2023-09-16T19:52:27.049Z,67.99
2023-09-16T19:54:59.158Z,68.11
2023-09-16T19:57:30.843Z,68.48
2023-09-16T20:00:02.709Z,68.90
2023-09-16T20:02:34.366Z,68.80
2023-09-16T20:05:06.353Z,69.14
2023-09-16T20:07:38.022Z,69.26
2023-09-16T20:10:09.909Z,69.47
2023-09-16T20:12:41.484Z,69.60
2023-09-16T20:15:15.858Z,69.87
2023-09-16T20:17:47.562Z,70.13
2023-09-16T20:20:19.510Z,70.17
2023-09-16T20:22:51.031Z,70.58
2023-09-16T20:25:22.819Z,70.79
2023-09-16T20:27:54.313Z,70.89
2023-09-16T20:30:25.853Z,70.80
2023-09-16T20:32:57.412Z,71.37
2023-09-16T20:35:29.219Z,71.25
2023-09-16T20:38:00.702Z,71.68
2023-09-16T20:40:35.097Z,72.15
2023-09-16T20:43:06.989Z,72.01
2023-09-16T20:45:38.787Z,71.72
2023-09-16T20:48:10.326Z,72.38
2023-09-16T20:50:42.168Z,72.55
2023-09-16T20:53:13.675Z,72.79
2023-09-16T20:55:45.580Z,73.28
2023-09-16T20:58:17.122Z,73.74
2023-09-16T21:00:48.840Z,74.28
2023-09-16T21:03:20.413Z,74.57
2023-09-16T21:05:53.264Z,74.51
2023-09-16T21:08:24.757Z,73.85
2023-09-16T21:10:56.471Z,74.36
2023-09-16T21:13:28.036Z,74.50
2023-09-16T21:15:59.877Z,74.83
2023-09-16T21:18:31.357Z,74.81
2023-09-16T21:21:03.153Z,75.07
2023-09-16T21:23:34.655Z,75.63
2023-09-16T21:26:06.345Z,76.20
2023-09-16T21:28:37.914Z,76.11
2023-09-16T21:31:09.854Z,76.08
2023-09-16T21:33:41.428Z,76.31
2023-09-16T21:36:13.253Z,76.09
2023-09-16T21:38:44.752Z,76.63
2023-09-16T21:41:16.593Z,76.69
2023-09-16T21:43:48.230Z,76.63
2023-09-16T21:46:20.175Z,77.10
2023-09-16T21:48:51.731Z,77.35
2023-09-16T21:51:23.595Z,77.73
2023-09-16T21:53:55.086Z,77.76
2023-09-16T21:56:26.581Z,77.72
2023-09-16T21:58:58.745Z,77.52
2023-09-16T22:01:30.391Z,77.87
2023-09-16T22:04:02.020Z,78.40
2023-09-16T22:06:33.513Z,78.55
2023-09-16T22:09:05.221Z,78.68
2023-09-16T22:11:36.705Z,78.46
2023-09-16T22:14:08.834Z,79.00
2023-09-16T22:16:40.390Z,78.08
2023-09-16T22:19:12.241Z,79.23
2023-09-16T22:21:44.208Z,79.28
2023-09-16T22:24:15.716Z,80.22
2023-09-16T22:26:47.230Z,79.92
2023-09-16T22:29:20.690Z,80.23
2023-09-16T22:31:52.655Z,80.30
2023-09-16T22:34:24.213Z,80.75
2023-09-16T22:36:56.060Z,80.76
2023-09-16T22:39:27.561Z,80.43
2023-09-16T22:41:59.422Z,80.38
2023-09-16T22:44:30.914Z,80.08
2023-09-16T22:47:02.919Z,79.48
2023-09-16T22:49:34.903Z,80.29
2023-09-16T22:52:06.620Z,81.05
2023-09-16T22:54:38.461Z,80.98
2023-09-16T22:57:09.939Z,81.53
2023-09-16T22:59:41.737Z,81.56
2023-09-16T23:02:13.303Z,82.07
2023-09-16T23:04:45.254Z,81.66
2023-09-16T23:07:16.860Z,82.33
2023-09-16T23:09:48.773Z,82.03
2023-09-16T23:12:20.263Z,81.55
2023-09-16T23:14:52.118Z,81.81
2023-09-16T23:17:23.928Z,82.23
2023-09-16T23:19:55.817Z,82.97
2023-09-16T23:22:27.411Z,82.76
2023-09-16T23:24:58.992Z,82.91
2023-09-16T23:27:30.504Z,82.99
2023-09-16T23:30:01.997Z,82.69
2023-09-16T23:32:33.497Z,83.24
2023-09-16T23:35:04.986Z,83.43
2023-09-16T23:37:36.865Z,83.93
2023-09-16T23:40:08.441Z,83.74
2023-09-16T23:42:40.238Z,83.68
2023-09-16T23:45:11.969Z,84.57
2023-09-16T23:47:43.809Z,84.37
2023-09-16T23:50:15.709Z,84.91
2023-09-16T23:52:47.238Z,84.55
2023-09-16T23:55:19.048Z,85.03
2023-09-16T23:57:50.536Z,85.12
